Portada
METAR-TAF:

METAR-TAF

Aeropuertos :

Yida, Arabia Saudita

Aeropuerto Internacional Rey Abdulaziz

latitud: 21-42N, longitud: 039-11E, altitud: 15 m

Observación

El informe se hizo hace 35 minutos, a las 22:00 UTC
Viento 4 kt del oeste
Temperatura 32°C
Humedad 46%
Presión 1002 hPa
Visibilidad 10 km o más
sin nubes por debajo de 1500 m y sin presencia de cumulonimbus.

METAR: OEJN 222200Z 28004KT CAVOK 32/19 Q1002 NOSIG

Hora: 01:35 (22:35 UTC)

Pronóstico

El informe se hizo hace 5 horas y 35 minutos, a las 17:00 UTC
Pronóstico válido del 22 a las 18 UTC al 23 a las 24 UTC
Viento 6 kt del noroeste con ráfagas de 16 kt
Visibilidad: 7000 m
Cielo despejado

TAF: OEJN 221700Z 2218/2324 32006G16KT 7000 SKC

Observaciones y pronósticos meteorológicos de más de 4000 aeropuertos (mensajes METAR y TAF).

Los puntos amarillos y rojos representan las estaciones disponibles.

Ponga el ratón en el punto deseado para ver el nombre de la estación.

Haga clic para ver las observaciones y los pronósticos meteorológicos.

Para cambiar el mapa : haga clic en los botones verdes con una cruz de color negro para hacer un zoom, en el botón verde con un guión para alejar o en las flechas verdes para mapas adyacentes.


METAR-TAF: